Time;durP1;ratioP1;P1;durP2;ratioP2;P2;SDS_P1;SDS_P2;PMS_P1;PMS_P2;Temp;Humidity;BMP_temperature;BMP_pressure;BME280_temperature;BME280_humidity;BME280_pressure;Samples;Min_cycle;Max_cycle;Signal;HPM_P1;HPM_P2
2023/06/02 00:02:23;;;;;;;10.18;7.15;;;21.20;72.00;;;;;;6245776;23;20006;-69
2023/06/02 00:04:52;;;;;;;13.07;7.68;;;21.20;72.60;;;;;;6245931;23;20088;-69
2023/06/02 00:07:18;;;;;;;14.32;8.10;;;21.20;73.10;;;;;;6245774;23;20001;-68
2023/06/02 00:09:44;;;;;;;13.13;7.78;;;21.20;72.40;;;;;;6245992;23;20036;-69
2023/06/02 00:12:10;;;;;;;11.60;7.55;;;21.20;72.40;;;;;;6245832;23;20000;-69
2023/06/02 00:14:42;;;;;;;10.68;7.80;;;21.10;72.90;;;;;;6246174;23;20012;-68
2023/06/02 00:17:08;;;;;;;12.32;7.88;;;21.10;72.70;;;;;;6245889;23;20047;-68
2023/06/02 00:19:35;;;;;;;11.90;7.78;;;21.10;72.70;;;;;;6245702;23;20000;-67
2023/06/02 00:22:03;;;;;;;12.18;7.57;;;21.10;73.00;;;;;;6245922;23;20156;-69
2023/06/02 00:24:29;;;;;;;12.50;7.95;;;21.00;72.80;;;;;;6245811;23;20034;-68
2023/06/02 00:26:55;;;;;;;13.30;8.00;;;21.00;73.30;;;;;;6246165;23;20007;-68
2023/06/02 00:29:20;;;;;;;10.57;7.78;;;21.00;73.30;;;;;;6245670;23;20370;-69
2023/06/02 00:31:46;;;;;;;11.02;7.60;;;20.90;73.60;;;;;;6245602;23;19997;-68
2023/06/02 00:34:12;;;;;;;11.40;7.93;;;20.90;73.80;;;;;;6245601;23;20011;-69
2023/06/02 00:36:38;;;;;;;13.25;7.85;;;20.90;73.80;;;;;;6245238;23;20007;-69
2023/06/02 00:39:03;;;;;;;11.45;7.55;;;20.80;74.30;;;;;;6244912;23;19992;-68
2023/06/02 00:41:29;;;;;;;14.27;7.93;;;20.90;74.50;;;;;;6244966;23;20035;-68
2023/06/02 00:43:56;;;;;;;12.15;8.10;;;20.90;74.50;;;;;;6245189;23;20339;-69
2023/06/02 00:46:22;;;;;;;12.93;8.40;;;20.90;74.40;;;;;;6245236;23;20002;-68
2023/06/02 00:48:51;;;;;;;18.48;8.23;;;20.90;74.50;;;;;;6245358;23;20083;-68
2023/06/02 00:51:18;;;;;;;13.45;7.97;;;20.80;74.50;;;;;;6244980;23;20000;-67
2023/06/02 00:53:45;;;;;;;15.70;7.90;;;20.90;74.50;;;;;;6245375;23;20004;-69
2023/06/02 00:56:16;;;;;;;10.57;7.63;;;20.90;74.30;;;;;;6218207;23;20011;-68
2023/06/02 00:58:45;;;;;;;13.77;7.30;;;20.90;74.40;;;;;;6245237;23;20000;-67
2023/06/02 01:01:12;;;;;;;13.48;8.07;;;20.80;74.50;;;;;;6245095;23;20004;-68
2023/06/02 01:03:43;;;;;;;14.77;7.03;;;20.80;74.60;;;;;;6244652;23;20377;-69
2023/06/02 01:06:10;;;;;;;12.45;7.72;;;20.80;74.30;;;;;;6244867;23;20015;-69
2023/06/02 01:08:39;;;;;;;9.60;6.85;;;20.80;74.40;;;;;;6244810;23;20003;-68
2023/06/02 01:11:06;;;;;;;13.63;7.13;;;20.80;74.20;;;;;;6245293;23;20000;-68
2023/06/02 01:13:32;;;;;;;12.57;6.88;;;20.80;74.10;;;;;;6245137;23;20007;-69
2023/06/02 01:15:58;;;;;;;11.32;7.05;;;20.80;74.20;;;;;;6245035;23;20020;-68
2023/06/02 01:18:25;;;;;;;10.65;6.75;;;20.80;74.00;;;;;;6245256;23;20000;-68
2023/06/02 01:20:57;;;;;;;10.07;7.35;;;20.80;74.20;;;;;;6244666;23;20001;-69
2023/06/02 01:23:36;;;;;;;11.13;6.43;;;20.70;73.90;;;;;;6244690;23;20020;-68
2023/06/02 01:26:05;;;;;;;12.68;6.68;;;20.70;74.30;;;;;;6245140;23;20050;-67
2023/06/02 01:28:31;;;;;;;11.90;7.20;;;20.60;74.30;;;;;;6244689;23;20004;-69
2023/06/02 01:31:12;;;;;;;12.63;6.68;;;20.60;74.50;;;;;;6244787;23;19996;-69
2023/06/02 01:33:41;;;;;;;12.27;7.40;;;20.60;74.20;;;;;;6244807;23;20036;-69
2023/06/02 01:36:07;;;;;;;10.57;6.50;;;20.60;74.00;;;;;;6244998;23;20000;-69
2023/06/02 01:38:35;;;;;;;10.05;6.25;;;20.60;74.20;;;;;;6245102;23;20000;-69
2023/06/02 01:41:03;;;;;;;14.00;6.80;;;20.70;74.00;;;;;;6245314;23;20000;-69
2023/06/02 01:43:32;;;;;;;9.50;5.78;;;20.70;73.50;;;;;;6244456;23;20008;-68
2023/06/02 01:45:59;;;;;;;10.35;6.38;;;20.60;73.60;;;;;;6244825;23;20003;-69
2023/06/02 01:48:28;;;;;;;9.48;6.55;;;20.60;73.90;;;;;;6245782;23;20027;-68
2023/06/02 01:50:54;;;;;;;9.43;6.30;;;20.60;73.60;;;;;;6244486;23;20464;-67
2023/06/02 01:53:20;;;;;;;10.48;7.03;;;20.50;74.00;;;;;;6245008;23;20008;-67
2023/06/02 01:55:49;;;;;;;11.52;7.18;;;20.50;74.10;;;;;;6244851;23;20007;-68
2023/06/02 01:58:15;;;;;;;12.35;6.60;;;20.50;74.50;;;;;;6244733;23;20019;-68
2023/06/02 02:00:40;;;;;;;13.15;7.82;;;20.50;74.10;;;;;;6244541;23;20000;-68
2023/06/02 02:03:06;;;;;;;11.32;6.72;;;20.50;74.60;;;;;;6217556;23;20024;-66
2023/06/02 02:05:31;;;;;;;11.63;7.22;;;20.50;74.70;;;;;;6244405;23;20016;-67
2023/06/02 02:07:57;;;;;;;11.75;7.18;;;20.50;74.60;;;;;;6244922;23;20058;-68
2023/06/02 02:10:23;;;;;;;11.45;6.60;;;20.50;74.90;;;;;;6244476;23;20333;-62
2023/06/02 02:12:49;;;;;;;15.05;7.35;;;20.40;74.80;;;;;;6244526;23;20299;-69
2023/06/02 02:15:15;;;;;;;14.15;7.47;;;20.40;75.10;;;;;;6244550;23;20008;-68
2023/06/02 02:17:45;;;;;;;11.10;6.55;;;20.30;75.00;;;;;;6245042;23;20019;-68
2023/06/02 02:20:16;;;;;;;10.82;6.50;;;20.30;75.20;;;;;;6244789;23;20018;-69
2023/06/02 02:22:42;;;;;;;9.55;7.00;;;20.20;75.30;;;;;;6244265;23;20023;-68
2023/06/02 02:25:08;;;;;;;12.80;6.97;;;20.10;75.60;;;;;;6244604;23;20516;-68
2023/06/02 02:27:35;;;;;;;12.93;7.40;;;20.10;75.90;;;;;;6244332;23;20008;-69
2023/06/02 02:30:00;;;;;;;10.25;6.78;;;20.10;75.80;;;;;;6244366;23;20011;-68
2023/06/02 02:32:26;;;;;;;11.82;6.80;;;20.10;75.90;;;;;;6244524;23;20008;-69
2023/06/02 02:34:52;;;;;;;10.57;7.10;;;20.20;75.70;;;;;;6244565;23;20312;-69
2023/06/02 02:37:19;;;;;;;10.35;7.10;;;20.10;75.90;;;;;;6244352;23;20490;-68
2023/06/02 02:39:45;;;;;;;11.25;7.35;;;20.10;75.90;;;;;;6244508;23;20137;-68
2023/06/02 02:42:11;;;;;;;12.93;7.25;;;20.10;75.70;;;;;;6244285;23;20050;-68
2023/06/02 02:44:37;;;;;;;11.60;6.57;;;20.10;75.90;;;;;;6244098;23;20015;-69
2023/06/02 02:47:02;;;;;;;12.18;6.30;;;20.10;75.70;;;;;;6244485;23;20008;-68
2023/06/02 02:49:28;;;;;;;11.55;6.78;;;20.10;75.80;;;;;;6244444;23;20012;-67
2023/06/02 02:51:54;;;;;;;9.55;6.65;;;20.10;75.80;;;;;;6244290;23;20073;-66
2023/06/02 02:54:20;;;;;;;15.10;6.60;;;20.20;75.80;;;;;;6244483;23;20006;-68
2023/06/02 02:56:46;;;;;;;16.10;6.60;;;20.20;75.70;;;;;;6244263;23;20434;-67
2023/06/02 02:59:15;;;;;;;9.30;6.43;;;20.20;75.70;;;;;;6244177;23;20040;-68
2023/06/02 03:01:44;;;;;;;9.68;6.68;;;20.20;76.00;;;;;;6244215;23;20007;-67
2023/06/02 03:04:21;;;;;;;11.45;6.93;;;20.20;75.50;;;;;;6245982;23;20027;-69
2023/06/02 03:06:53;;;;;;;8.98;6.90;;;20.20;76.00;;;;;;6246056;23;20083;-69
2023/06/02 03:09:19;;;;;;;10.25;6.82;;;20.10;76.30;;;;;;6245825;23;20055;-67
2023/06/02 03:11:45;;;;;;;11.13;6.72;;;20.10;75.50;;;;;;6246371;23;20081;-69
2023/06/02 03:14:11;;;;;;;10.43;6.38;;;20.10;75.40;;;;;;6246070;23;20434;-69
2023/06/02 03:16:46;;;;;;;9.68;6.70;;;20.10;75.30;;;;;;6246188;23;20082;-68
2023/06/02 03:19:15;;;;;;;12.50;6.93;;;20.10;75.50;;;;;;6246175;23;20330;-68
2023/06/02 03:21:41;;;;;;;10.73;7.07;;;20.00;76.10;;;;;;6245883;23;20004;-67
2023/06/02 03:24:10;;;;;;;14.57;7.30;;;19.90;75.80;;;;;;6246233;23;20536;-68
2023/06/02 03:26:37;;;;;;;12.65;7.57;;;19.90;76.00;;;;;;6246957;23;20002;-69
2023/06/02 03:29:02;;;;;;;10.75;6.97;;;19.90;76.40;;;;;;6246799;23;20015;-69
2023/06/02 03:31:28;;;;;;;10.30;7.10;;;19.80;76.50;;;;;;6246121;23;20363;-69
2023/06/02 03:33:54;;;;;;;16.75;7.28;;;19.80;76.60;;;;;;6246005;23;20039;-69
2023/06/02 03:36:20;;;;;;;10.30;7.03;;;19.80;76.80;;;;;;6246236;23;20026;-69
2023/06/02 03:38:46;;;;;;;9.02;6.47;;;19.80;76.80;;;;;;6246070;23;20001;-68
2023/06/02 03:41:12;;;;;;;13.00;7.93;;;19.80;76.80;;;;;;6246362;23;20027;-68
2023/06/02 03:43:37;;;;;;;20.95;7.45;;;19.80;76.60;;;;;;6245867;23;20008;-68
2023/06/02 03:46:03;;;;;;;15.27;8.02;;;19.80;76.70;;;;;;6246051;23;20058;-68
2023/06/02 03:48:29;;;;;;;10.65;6.80;;;19.80;76.90;;;;;;6245991;23;20075;-68
2023/06/02 03:50:54;;;;;;;12.75;7.65;;;19.70;77.20;;;;;;6245928;23;20492;-68
2023/06/02 03:53:21;;;;;;;12.90;7.75;;;19.60;77.30;;;;;;6245579;23;20034;-68
2023/06/02 03:55:47;;;;;;;12.43;7.25;;;19.60;77.30;;;;;;6245604;23;20019;-68
2023/06/02 03:58:12;;;;;;;12.75;7.50;;;19.60;77.70;;;;;;6218960;23;20441;-68
2023/06/02 04:00:38;;;;;;;11.63;7.25;;;19.60;77.40;;;;;;6245746;23;20078;-67
2023/06/02 04:03:04;;;;;;;12.90;7.38;;;19.70;77.60;;;;;;6245512;23;20020;-69
2023/06/02 04:05:30;;;;;;;8.68;6.72;;;19.70;77.30;;;;;;6245312;23;20438;-68
2023/06/02 04:07:56;;;;;;;11.25;6.95;;;19.70;77.60;;;;;;6218302;23;20099;-70
2023/06/02 04:10:22;;;;;;;11.25;7.30;;;19.70;77.50;;;;;;6245613;23;20019;-69
2023/06/02 04:12:47;;;;;;;13.60;7.88;;;19.70;77.10;;;;;;6245875;23;20007;-68
2023/06/02 04:15:13;;;;;;;10.50;7.05;;;19.80;77.30;;;;;;6245285;23;20071;-68
2023/06/02 04:17:39;;;;;;;10.93;7.30;;;19.80;77.20;;;;;;6245671;23;20327;-68
2023/06/02 04:20:05;;;;;;;11.85;7.20;;;19.80;77.00;;;;;;6218516;23;20146;-67
2023/06/02 04:22:31;;;;;;;13.50;7.05;;;19.80;77.20;;;;;;6245436;23;20024;-68
2023/06/02 04:24:57;;;;;;;9.77;6.78;;;19.80;77.10;;;;;;6245552;23;20007;-69
2023/06/02 04:27:22;;;;;;;10.55;7.15;;;19.80;77.00;;;;;;6245710;23;20083;-68
2023/06/02 04:29:50;;;;;;;11.07;7.05;;;19.80;76.80;;;;;;6245594;23;20166;-69
2023/06/02 04:32:16;;;;;;;10.20;7.22;;;19.90;76.70;;;;;;6245517;23;20127;-68
2023/06/02 04:34:41;;;;;;;10.73;7.38;;;20.00;76.70;;;;;;6245296;23;20402;-69
2023/06/02 04:37:07;;;;;;;10.65;7.65;;;20.00;76.30;;;;;;6245450;23;20039;-68
2023/06/02 04:39:35;;;;;;;12.60;7.35;;;20.00;76.40;;;;;;6245668;23;20000;-68
2023/06/02 04:42:01;;;;;;;9.57;6.88;;;20.00;76.50;;;;;;6245800;23;20071;-69
2023/06/02 04:44:26;;;;;;;12.18;7.78;;;20.00;76.50;;;;;;6245325;23;20086;-69
2023/06/02 04:46:52;;;;;;;11.73;7.53;;;19.90;76.70;;;;;;6245434;23;19996;-68
2023/06/02 04:49:18;;;;;;;11.05;7.35;;;19.90;76.70;;;;;;6245415;23;20004;-67
2023/06/02 04:51:43;;;;;;;11.90;7.53;;;19.80;76.90;;;;;;6245944;23;20012;-69
2023/06/02 04:54:09;;;;;;;12.15;7.15;;;19.80;77.10;;;;;;6245513;23;19996;-67
2023/06/02 04:56:36;;;;;;;14.23;7.57;;;19.90;77.30;;;;;;6245119;23;20391;-69
2023/06/02 04:59:02;;;;;;;13.07;7.72;;;20.00;77.10;;;;;;6244926;23;20004;-68
2023/06/02 05:01:28;;;;;;;11.07;7.35;;;20.00;77.00;;;;;;6245228;23;20103;-68
2023/06/02 05:03:54;;;;;;;12.43;7.45;;;20.00;76.90;;;;;;6245096;23;20052;-68
2023/06/02 05:06:20;;;;;;;14.02;7.82;;;20.00;76.80;;;;;;6245295;23;20004;-70
2023/06/02 05:08:45;;;;;;;12.75;7.82;;;20.10;76.70;;;;;;6245314;23;20011;-68
2023/06/02 05:11:11;;;;;;;11.30;7.38;;;20.20;76.60;;;;;;6245205;23;20010;-68
2023/06/02 05:13:37;;;;;;;11.68;7.82;;;20.30;76.40;;;;;;6245011;23;20153;-68
2023/06/02 05:16:03;;;;;;;10.10;6.82;;;20.40;75.90;;;;;;6245117;23;20442;-69
2023/06/02 05:18:29;;;;;;;11.43;7.18;;;20.60;75.60;;;;;;6244830;23;20039;-68
2023/06/02 05:20:55;;;;;;;11.93;7.28;;;20.80;74.90;;;;;;6244991;23;19992;-69
2023/06/02 05:23:21;;;;;;;13.23;7.35;;;21.30;74.30;;;;;;6244780;23;20044;-69
2023/06/02 05:25:52;;;;;;;11.90;7.72;;;21.70;73.30;;;;;;6245355;23;20030;-69
2023/06/02 05:28:17;;;;;;;11.57;7.05;;;21.90;72.60;;;;;;6245332;23;20004;-68
2023/06/02 05:30:43;;;;;;;12.48;8.20;;;22.00;71.80;;;;;;6245099;23;20032;-68
2023/06/02 05:33:09;;;;;;;11.23;6.63;;;22.10;71.70;;;;;;6244830;23;20330;-69
2023/06/02 05:35:34;;;;;;;10.52;7.38;;;22.40;71.30;;;;;;6244796;23;20062;-69
2023/06/02 05:38:00;;;;;;;14.95;7.55;;;22.50;70.60;;;;;;6245230;23;20011;-69
2023/06/02 05:40:26;;;;;;;11.98;6.85;;;22.70;70.30;;;;;;6244789;23;20007;-68
2023/06/02 05:42:51;;;;;;;13.73;7.30;;;22.90;70.10;;;;;;6244683;23;20027;-69
2023/06/02 05:45:17;;;;;;;9.73;6.00;;;23.10;69.20;;;;;;6244298;23;20426;-68
2023/06/02 05:47:43;;;;;;;13.40;6.80;;;23.40;68.80;;;;;;6244567;23;20348;-68
2023/06/02 05:50:10;;;;;;;10.43;6.10;;;23.50;68.20;;;;;;6244553;23;20004;-68
2023/06/02 05:52:36;;;;;;;8.95;5.93;;;23.70;67.60;;;;;;6244078;23;20024;-67
2023/06/02 05:55:02;;;;;;;11.45;6.20;;;23.90;67.40;;;;;;6217310;23;20335;-69
2023/06/02 05:57:27;;;;;;;10.00;5.90;;;24.10;66.30;;;;;;6244431;23;20438;-69
2023/06/02 05:59:53;;;;;;;10.48;6.03;;;24.30;66.10;;;;;;6217278;23;20095;-68
2023/06/02 06:02:19;;;;;;;7.75;5.20;;;24.50;65.30;;;;;;6244391;23;20450;-68
2023/06/02 06:04:45;;;;;;;8.30;5.47;;;24.60;65.20;;;;;;6244160;23;20031;-67
2023/06/02 06:07:10;;;;;;;8.63;5.70;;;24.60;64.80;;;;;;6244159;23;19992;-68
2023/06/02 06:09:36;;;;;;;10.15;5.80;;;24.70;64.80;;;;;;6244230;23;20062;-67
2023/06/02 06:12:02;;;;;;;9.20;5.07;;;24.80;64.50;;;;;;6244554;23;20005;-68
2023/06/02 06:14:28;;;;;;;12.07;5.75;;;25.00;64.00;;;;;;6244227;23;20119;-68
2023/06/02 06:16:53;;;;;;;11.57;5.38;;;25.00;64.00;;;;;;6217215;23;20018;-68
2023/06/02 06:19:19;;;;;;;8.68;5.82;;;25.00;63.40;;;;;;6244489;23;20074;-66
2023/06/02 06:21:45;;;;;;;9.93;5.90;;;25.00;63.60;;;;;;6244071;23;20079;-69
2023/06/02 06:24:11;;;;;;;7.10;5.18;;;25.00;62.80;;;;;;6243923;23;20024;-68
2023/06/02 06:26:36;;;;;;;9.30;5.85;;;25.00;62.80;;;;;;6244360;23;20000;-69
2023/06/02 06:29:03;;;;;;;8.18;5.38;;;25.10;62.60;;;;;;6244446;23;20007;-68
2023/06/02 06:31:29;;;;;;;8.63;5.65;;;25.20;62.50;;;;;;6244442;23;20000;-68
2023/06/02 06:33:55;;;;;;;8.30;4.93;;;25.30;62.20;;;;;;6244296;23;20315;-68
2023/06/02 06:36:20;;;;;;;8.82;5.50;;;25.50;62.20;;;;;;6244192;23;20325;-70
2023/06/02 06:38:46;;;;;;;7.85;5.30;;;25.70;61.90;;;;;;6246351;23;20437;-69
2023/06/02 06:41:12;;;;;;;9.02;5.43;;;25.90;61.80;;;;;;6246916;23;20034;-68
2023/06/02 06:43:38;;;;;;;9.05;5.38;;;26.30;61.50;;;;;;6246615;23;20426;-71
2023/06/02 06:46:04;;;;;;;10.57;5.50;;;26.50;60.80;;;;;;6246140;23;20000;-71
2023/06/02 06:48:30;;;;;;;8.38;4.95;;;26.60;60.60;;;;;;6246746;23;20027;-69
2023/06/02 06:50:56;;;;;;;9.98;5.28;;;26.80;60.20;;;;;;6246525;23;20402;-70
2023/06/02 06:53:22;;;;;;;11.45;6.70;;;26.90;60.00;;;;;;6246561;23;20330;-72
2023/06/02 06:55:48;;;;;;;7.55;5.97;;;26.90;59.80;;;;;;6246447;23;20000;-70
2023/06/02 06:58:13;;;;;;;9.40;5.20;;;27.10;60.00;;;;;;6246124;23;20004;-70
2023/06/02 07:00:39;;;;;;;9.35;5.88;;;27.30;59.50;;;;;;6246681;23;20004;-71
2023/06/02 07:03:05;;;;;;;7.38;5.13;;;27.50;59.10;;;;;;6245999;23;20449;-69
2023/06/02 07:05:30;;;;;;;8.68;4.70;;;27.50;58.80;;;;;;6245972;23;20012;-70
2023/06/02 07:07:56;;;;;;;10.77;5.50;;;27.60;58.90;;;;;;6246438;23;20004;-70
2023/06/02 07:10:22;;;;;;;8.85;5.43;;;27.70;58.10;;;;;;6245844;23;20304;-69
2023/06/02 07:12:48;;;;;;;10.02;5.13;;;27.60;57.80;;;;;;6245932;23;20000;-70
2023/06/02 07:15:14;;;;;;;8.73;5.13;;;27.60;58.30;;;;;;6245937;23;20008;-70
2023/06/02 07:17:42;;;;;;;8.18;5.22;;;27.70;58.10;;;;;;6246224;23;20012;-71
2023/06/02 07:20:09;;;;;;;12.00;5.80;;;27.70;57.50;;;;;;6245963;23;20047;-69
2023/06/02 07:22:35;;;;;;;8.63;5.22;;;27.70;57.90;;;;;;6219997;23;20087;-71
2023/06/02 07:25:03;;;;;;;10.73;5.05;;;27.70;57.50;;;;;;6246006;23;20504;-68
2023/06/02 07:27:29;;;;;;;9.20;5.55;;;27.80;57.50;;;;;;6245266;23;20088;-69
2023/06/02 07:29:55;;;;;;;10.52;6.25;;;27.70;57.40;;;;;;6245772;23;20431;-69
2023/06/02 07:32:21;;;;;;;8.32;5.80;;;27.70;57.60;;;;;;6246092;23;20009;-69
2023/06/02 07:34:47;;;;;;;19.05;6.55;;;27.70;57.50;;;;;;6246059;23;20333;-71
2023/06/02 07:37:13;;;;;;;11.55;5.32;;;27.60;56.90;;;;;;6245939;23;20003;-70
2023/06/02 07:39:39;;;;;;;15.25;6.40;;;27.60;56.90;;;;;;6245808;23;20016;-70
2023/06/02 07:42:05;;;;;;;9.20;5.53;;;27.60;57.10;;;;;;6245677;23;20299;-70
2023/06/02 07:44:31;;;;;;;8.93;5.50;;;27.30;56.80;;;;;;6245249;23;20016;-69
2023/06/02 07:46:57;;;;;;;11.18;5.95;;;27.20;57.00;;;;;;6245396;23;20072;-68
2023/06/02 07:49:23;;;;;;;8.77;5.32;;;27.20;57.20;;;;;;6245177;23;20000;-70
2023/06/02 07:51:49;;;;;;;12.77;6.30;;;27.10;57.00;;;;;;6246124;23;20003;-70
2023/06/02 07:54:15;;;;;;;9.38;5.80;;;27.00;57.10;;;;;;6245709;23;20072;-70
2023/06/02 07:56:40;;;;;;;11.93;6.20;;;26.90;57.10;;;;;;6245792;23;20000;-72
2023/06/02 07:59:06;;;;;;;7.95;5.55;;;26.80;57.20;;;;;;6245216;23;20009;-71
2023/06/02 08:01:32;;;;;;;13.10;5.68;;;26.90;56.90;;;;;;6245986;23;20007;-71
2023/06/02 08:03:58;;;;;;;9.52;5.72;;;27.00;57.10;;;;;;6245727;23;20023;-70
2023/06/02 08:06:23;;;;;;;8.93;5.40;;;27.00;57.00;;;;;;6246091;23;20410;-70
2023/06/02 08:08:49;;;;;;;11.20;6.20;;;27.00;56.90;;;;;;6246016;23;19999;-70
2023/06/02 08:11:15;;;;;;;10.55;5.72;;;26.90;57.20;;;;;;6245851;23;19997;-70
2023/06/02 08:13:40;;;;;;;9.23;5.57;;;26.90;56.90;;;;;;6245443;23;20004;-70
2023/06/02 08:16:06;;;;;;;16.90;7.25;;;26.80;56.90;;;;;;6245763;23;20000;-70
2023/06/02 08:18:32;;;;;;;8.52;6.03;;;26.80;57.10;;;;;;6245882;23;20004;-71
2023/06/02 08:20:57;;;;;;;6.93;5.38;;;26.80;57.10;;;;;;6245747;23;20008;-71
2023/06/02 08:23:23;;;;;;;8.60;5.75;;;26.70;56.80;;;;;;6245945;23;20070;-70
2023/06/02 08:25:49;;;;;;;8.30;5.03;;;26.70;57.10;;;;;;6248647;23;20407;-71
2023/06/02 08:28:14;;;;;;;9.43;6.65;;;26.60;57.20;;;;;;6245540;23;20342;-69
2023/06/02 08:30:46;;;;;;;7.53;5.70;;;26.60;57.10;;;;;;6244808;23;20063;-68
2023/06/02 08:33:11;;;;;;;12.27;5.95;;;26.50;57.30;;;;;;6243514;23;20004;-70
2023/06/02 08:35:40;;;;;;;9.93;5.85;;;26.30;57.80;;;;;;6243104;23;20007;-70
2023/06/02 08:38:09;;;;;;;9.68;5.80;;;26.30;57.70;;;;;;6243028;23;20004;-69
2023/06/02 08:40:37;;;;;;;11.43;6.70;;;26.30;57.90;;;;;;6244020;23;20071;-70
2023/06/02 08:43:13;;;;;;;9.35;5.85;;;26.40;58.40;;;;;;6245699;23;20012;-70
2023/06/02 08:45:41;;;;;;;11.98;6.53;;;26.30;57.80;;;;;;6245560;23;20027;-68
2023/06/02 08:48:07;;;;;;;8.02;5.18;;;26.20;58.00;;;;;;6245767;23;19996;-72
2023/06/02 08:50:35;;;;;;;9.75;5.88;;;26.10;57.70;;;;;;6245482;23;20103;-69
2023/06/02 08:53:04;;;;;;;8.23;5.45;;;26.00;58.10;;;;;;6245409;23;19996;-70
2023/06/02 08:55:30;;;;;;;8.50;5.32;;;26.10;58.10;;;;;;6245344;23;20440;-72
2023/06/02 08:57:56;;;;;;;7.00;4.97;;;26.10;57.90;;;;;;6245830;23;20079;-70
2023/06/02 09:00:22;;;;;;;10.15;5.22;;;25.90;57.50;;;;;;6245292;23;20427;-70
2023/06/02 09:02:48;;;;;;;8.30;5.15;;;26.00;57.60;;;;;;6245303;23;20118;-69
2023/06/02 09:05:16;;;;;;;10.05;5.60;;;26.00;57.70;;;;;;6245151;23;20458;-70
2023/06/02 09:07:46;;;;;;;10.18;5.85;;;26.00;57.80;;;;;;6217985;23;20008;-70
2023/06/02 09:10:31;;;;;;;7.28;4.93;;;26.00;58.00;;;;;;6218480;23;20046;-69
2023/06/02 09:12:56;;;;;;;11.35;4.97;;;26.00;57.60;;;;;;6245400;23;20108;-70
2023/06/02 09:15:24;;;;;;;8.10;4.85;;;26.00;57.80;;;;;;6245660;23;19996;-70
2023/06/02 09:17:50;;;;;;;7.68;5.40;;;26.00;57.70;;;;;;6245534;23;20315;-71
2023/06/02 09:20:16;;;;;;;11.25;5.57;;;26.10;57.50;;;;;;6218907;23;20027;-71
2023/06/02 09:22:55;;;;;;;8.57;5.25;;;26.10;57.20;;;;;;6245404;23;20007;-69
2023/06/02 09:25:24;;;;;;;9.23;5.68;;;26.20;57.40;;;;;;6245910;23;20032;-70
2023/06/02 09:27:54;;;;;;;7.70;5.40;;;26.10;57.30;;;;;;6247647;23;20103;-71
2023/06/02 09:30:20;;;;;;;7.68;5.22;;;26.10;56.50;;;;;;6245532;23;20507;-71
2023/06/02 09:32:57;;;;;;;8.25;4.97;;;26.10;56.40;;;;;;6245488;23;20004;-70
2023/06/02 09:35:50;;;;;;;12.95;6.35;;;26.10;56.30;;;;;;6245502;23;20004;-70
2023/06/02 09:38:16;;;;;;;7.05;5.13;;;26.10;56.70;;;;;;6238886;23;20423;-69
2023/06/02 09:40:43;;;;;;;8.18;5.72;;;26.20;55.90;;;;;;6245151;23;20012;-70
2023/06/02 09:43:12;;;;;;;7.38;5.13;;;26.20;55.80;;;;;;6244643;23;20083;-70
2023/06/02 09:45:47;;;;;;;8.45;4.90;;;26.20;55.70;;;;;;6244851;23;20000;-69
2023/06/02 09:48:20;;;;;;;9.73;5.35;;;26.10;55.20;;;;;;6244953;23;20018;-71
2023/06/02 09:50:45;;;;;;;6.85;5.20;;;26.20;55.20;;;;;;6244529;23;20005;-69
2023/06/02 09:53:13;;;;;;;6.57;4.82;;;26.20;54.70;;;;;;6244416;23;20342;-69
2023/06/02 09:55:39;;;;;;;7.85;4.93;;;26.20;54.90;;;;;;6244895;23;20005;-69
2023/06/02 09:58:06;;;;;;;8.48;5.78;;;26.30;54.80;;;;;;6245332;23;20004;-70
2023/06/02 10:00:33;;;;;;;8.10;5.47;;;26.30;54.60;;;;;;6244973;23;20000;-69
2023/06/02 10:03:00;;;;;;;7.25;5.43;;;26.30;54.20;;;;;;6245299;23;20043;-72
2023/06/02 10:05:26;;;;;;;9.70;6.10;;;26.30;53.50;;;;;;6244824;23;20095;-70
2023/06/02 10:07:56;;;;;;;9.95;5.85;;;26.40;54.30;;;;;;6244821;23;20016;-69
2023/06/02 10:10:51;;;;;;;9.95;5.90;;;26.40;54.50;;;;;;6244728;23;20004;-74
2023/06/02 10:13:46;;;;;;;12.45;8.55;;;26.50;53.70;;;;;;6244464;23;20007;-73
2023/06/02 10:16:20;;;;;;;10.57;6.25;;;26.60;54.00;;;;;;6244852;23;20422;-73
2023/06/02 10:19:01;;;;;;;10.52;6.30;;;26.60;54.40;;;;;;6244610;23;20004;-72
2023/06/02 10:21:58;;;;;;;8.82;5.90;;;26.60;54.40;;;;;;6244697;23;20004;-71
2023/06/02 10:24:58;;;;;;;22.15;8.20;;;26.60;53.90;;;;;;6244919;23;20039;-72
2023/06/02 10:27:31;;;;;;;10.48;6.25;;;26.70;54.50;;;;;;6245113;23;20000;-72
2023/06/02 10:29:57;;;;;;;10.40;7.32;;;26.80;54.40;;;;;;6250777;23;20007;-72
2023/06/02 10:32:27;;;;;;;11.25;7.03;;;26.80;54.30;;;;;;6245401;23;20000;-72
2023/06/02 10:34:56;;;;;;;11.23;7.93;;;26.80;54.30;;;;;;6244146;23;20028;-70
2023/06/02 10:37:23;;;;;;;11.23;6.68;;;26.90;54.70;;;;;;6244427;23;20023;-70
2023/06/02 10:39:58;;;;;;;17.83;8.77;;;26.90;54.50;;;;;;6244329;23;19997;-72
2023/06/02 10:42:26;;;;;;;10.27;7.25;;;27.00;54.90;;;;;;6244638;23;20084;-70
2023/06/02 10:45:12;;;;;;;12.95;8.00;;;27.00;54.60;;;;;;6244526;23;20013;-71
2023/06/02 10:47:38;;;;;;;11.88;7.50;;;27.10;54.70;;;;;;6244132;23;20331;-69
2023/06/02 10:50:09;;;;;;;8.93;7.13;;;27.20;54.00;;;;;;6244362;23;20111;-72
2023/06/02 10:53:00;;;;;;;17.50;8.95;;;27.20;53.30;;;;;;6243180;23;20007;-70
2023/06/02 10:55:27;;;;;;;18.83;8.90;;;27.20;54.50;;;;;;6243174;23;20006;-69
2023/06/02 10:58:01;;;;;;;14.18;7.82;;;27.20;54.50;;;;;;6243834;23;20315;-68
2023/06/02 11:00:32;;;;;;;9.35;7.25;;;27.30;54.10;;;;;;6243009;23;20087;-66
2023/06/02 11:03:20;;;;;;;11.25;7.22;;;27.40;53.00;;;;;;6243393;23;20311;-69
2023/06/02 11:05:48;;;;;;;11.40;7.05;;;27.50;53.20;;;;;;6219807;23;20028;-69
2023/06/02 11:08:14;;;;;;;11.63;7.13;;;27.50;53.60;;;;;;6243634;23;20012;-69
2023/06/02 11:10:43;;;;;;;11.73;7.13;;;27.70;53.40;;;;;;6243186;23;20423;-68
2023/06/02 11:13:09;;;;;;;11.55;7.68;;;27.70;53.40;;;;;;6243366;23;20007;-67
2023/06/02 11:15:36;;;;;;;13.52;7.78;;;27.70;52.90;;;;;;6243876;23;20004;-69
2023/06/02 11:18:20;;;;;;;10.73;7.25;;;27.80;53.60;;;;;;6243851;23;20000;-69
2023/06/02 11:20:46;;;;;;;9.40;7.00;;;27.90;52.50;;;;;;6243474;23;20000;-67
2023/06/02 11:23:12;;;;;;;13.15;7.57;;;27.90;53.20;;;;;;6244124;23;20091;-67
2023/06/02 11:25:38;;;;;;;10.18;6.85;;;27.90;53.20;;;;;;6245624;23;20004;-66
2023/06/02 11:28:03;;;;;;;9.13;6.68;;;27.80;53.00;;;;;;6245856;23;20071;-65
2023/06/02 11:30:29;;;;;;;10.13;6.65;;;27.80;52.70;;;;;;6242344;23;20066;-66
2023/06/02 11:32:55;;;;;;;10.13;7.05;;;27.70;52.30;;;;;;6244430;23;20004;-65
2023/06/02 11:35:26;;;;;;;11.48;7.47;;;27.90;52.10;;;;;;6244941;23;20000;-65
2023/06/02 11:38:07;;;;;;;15.82;9.02;;;27.90;51.90;;;;;;6245679;23;20027;-67
2023/06/02 11:40:36;;;;;;;10.70;7.15;;;28.00;52.40;;;;;;6245452;23;20026;-65
2023/06/02 11:43:03;;;;;;;9.45;6.95;;;28.10;51.70;;;;;;6245407;23;20087;-69
2023/06/02 11:45:29;;;;;;;11.07;7.05;;;28.20;50.90;;;;;;6245371;23;20456;-68
2023/06/02 11:47:55;;;;;;;13.75;8.18;;;28.20;50.20;;;;;;6216542;23;19996;-67
2023/06/02 11:50:21;;;;;;;9.48;7.13;;;28.30;50.80;;;;;;6245180;23;20284;-67
2023/06/02 11:52:47;;;;;;;9.77;6.95;;;28.40;49.80;;;;;;6218590;23;20062;-66
2023/06/02 11:55:13;;;;;;;12.55;8.07;;;28.50;49.10;;;;;;6245682;23;20011;-67
2023/06/02 11:57:42;;;;;;;8.30;6.53;;;28.60;49.80;;;;;;6245429;23;20410;-68
2023/06/02 12:00:18;;;;;;;8.18;5.97;;;28.70;48.70;;;;;;6244844;23;20536;-67
2023/06/02 12:02:57;;;;;;;9.98;6.63;;;28.60;47.30;;;;;;6244543;23;20027;-68
2023/06/02 12:05:33;;;;;;;11.65;6.95;;;28.70;48.70;;;;;;6245357;23;20477;-68
2023/06/02 12:08:14;;;;;;;12.63;8.18;;;28.80;50.70;;;;;;6245395;23;20008;-69
2023/06/02 12:10:41;;;;;;;10.00;6.85;;;28.90;51.00;;;;;;6245301;23;20406;-67
2023/06/02 12:13:07;;;;;;;11.27;6.60;;;29.00;52.70;;;;;;6245313;23;20007;-71
2023/06/02 12:15:33;;;;;;;9.57;6.72;;;29.10;53.10;;;;;;6218470;23;20001;-69
2023/06/02 12:18:01;;;;;;;14.57;7.13;;;29.20;53.30;;;;;;6244859;23;20256;-68
2023/06/02 12:20:40;;;;;;;10.38;6.90;;;29.30;54.00;;;;;;6245790;23;20008;-72
2023/06/02 12:23:10;;;;;;;10.00;7.18;;;29.40;53.80;;;;;;6245596;23;20008;-68
2023/06/02 12:25:36;;;;;;;8.95;6.18;;;29.30;54.00;;;;;;6245553;23;20000;-69
2023/06/02 12:28:13;;;;;;;10.95;6.95;;;29.20;53.70;;;;;;6246169;23;20338;-68
2023/06/02 12:30:39;;;;;;;8.90;6.35;;;29.10;54.10;;;;;;6245949;23;20381;-68
2023/06/02 12:33:10;;;;;;;9.00;6.20;;;29.00;54.00;;;;;;6244662;23;20031;-69
2023/06/02 12:35:36;;;;;;;10.05;6.90;;;29.00;54.30;;;;;;6245136;23;20299;-70
2023/06/02 12:38:06;;;;;;;10.30;6.47;;;29.00;54.60;;;;;;6245466;23;20327;-70
2023/06/02 12:40:32;;;;;;;7.32;5.95;;;29.00;54.60;;;;;;6245369;23;20000;-68
2023/06/02 12:42:59;;;;;;;11.35;6.70;;;29.20;54.40;;;;;;6245195;23;20078;-69
2023/06/02 12:45:25;;;;;;;8.80;6.22;;;29.30;54.10;;;;;;6245053;23;20004;-69